createdAt,value
2022-12-03T00:00:29.736Z,59.25
2022-12-03T00:01:32.467Z,58.70
2022-12-03T00:02:34.260Z,59.11
2022-12-03T00:03:37.259Z,59.54
2022-12-03T00:04:39.095Z,59.33
2022-12-03T00:05:48.714Z,59.46
2022-12-03T00:06:51.011Z,59.30
2022-12-03T00:07:53.783Z,59.42
2022-12-03T00:08:55.515Z,58.85
2022-12-03T00:09:58.260Z,59.33
2022-12-03T00:10:59.947Z,59.59
2022-12-03T00:12:03.043Z,59.19
2022-12-03T00:13:04.914Z,59.46
2022-12-03T00:14:07.658Z,59.60
2022-12-03T00:15:11.201Z,58.79
2022-12-03T00:16:14.096Z,59.56
2022-12-03T00:17:15.864Z,58.85
2022-12-03T00:18:18.540Z,58.97
2022-12-03T00:19:20.257Z,59.82
2022-12-03T00:20:24.461Z,58.95
2022-12-03T00:21:27.485Z,59.68
2022-12-03T00:22:30.315Z,59.22
2022-12-03T00:23:33.971Z,58.96
2022-12-03T00:24:39.860Z,59.96
2022-12-03T00:25:41.583Z,59.20
2022-12-03T00:26:44.277Z,59.35
2022-12-03T00:27:46.107Z,59.17
2022-12-03T00:28:48.751Z,59.22
2022-12-03T00:29:50.510Z,58.80
2022-12-03T00:30:54.171Z,58.92
2022-12-03T00:31:56.031Z,59.74
2022-12-03T00:32:59.117Z,59.38
2022-12-03T00:34:00.943Z,59.92
2022-12-03T00:35:03.878Z,59.88
2022-12-03T00:36:06.544Z,59.16
2022-12-03T00:37:10.553Z,59.40
2022-12-03T00:38:12.379Z,59.97
2022-12-03T00:39:15.147Z,59.02
2022-12-03T00:40:17.024Z,59.41
2022-12-03T00:41:19.707Z,59.43
2022-12-03T00:42:21.401Z,59.38
2022-12-03T00:43:24.111Z,59.98
2022-12-03T00:44:26.212Z,59.66
2022-12-03T00:45:28.963Z,60.13
2022-12-03T00:46:30.693Z,59.57
2022-12-03T00:47:33.419Z,59.03
2022-12-03T00:48:35.183Z,59.83
2022-12-03T00:49:37.875Z,59.07
2022-12-03T00:50:39.564Z,59.97
2022-12-03T00:51:42.292Z,59.91
2022-12-03T00:52:46.473Z,59.42
2022-12-03T00:53:48.263Z,59.71
2022-12-03T00:54:51.274Z,59.49
2022-12-03T00:55:53.303Z,59.00
2022-12-03T00:56:56.025Z,59.57
2022-12-03T00:57:57.806Z,59.43
2022-12-03T00:59:00.450Z,59.61
2022-12-03T01:00:02.157Z,59.46
2022-12-03T01:01:04.900Z,59.19
2022-12-03T01:02:06.704Z,58.79
2022-12-03T01:03:09.423Z,58.81
2022-12-03T01:04:11.230Z,59.60
2022-12-03T01:05:14.067Z,59.43
2022-12-03T01:06:15.862Z,58.65
2022-12-03T01:07:18.520Z,58.95
2022-12-03T01:08:21.668Z,59.48
2022-12-03T01:09:24.347Z,59.08
2022-12-03T01:10:26.081Z,58.39
2022-12-03T01:11:41.454Z,58.62
2022-12-03T01:12:43.449Z,58.86
2022-12-03T01:13:46.148Z,59.09
2022-12-03T01:14:47.881Z,58.82
2022-12-03T01:15:50.565Z,58.94
2022-12-03T01:16:52.269Z,58.42
2022-12-03T01:17:55.036Z,59.27
2022-12-03T01:18:56.860Z,58.91
2022-12-03T01:20:01.564Z,58.71
2022-12-03T01:21:03.311Z,58.74
2022-12-03T01:22:06.066Z,58.86
2022-12-03T01:23:07.758Z,59.13
2022-12-03T01:24:11.905Z,59.35
2022-12-03T01:25:13.608Z,59.06
2022-12-03T01:26:16.363Z,58.77
2022-12-03T01:27:18.054Z,59.09
2022-12-03T01:28:20.770Z,59.01
2022-12-03T01:29:22.652Z,58.82
2022-12-03T01:30:25.364Z,58.30
2022-12-03T01:31:45.554Z,59.03
2022-12-03T01:32:47.320Z,58.86
2022-12-03T01:33:48.984Z,58.78
2022-12-03T01:34:53.500Z,59.08
2022-12-03T01:35:55.411Z,58.54
2022-12-03T01:36:58.097Z,58.92
2022-12-03T01:37:59.777Z,58.55
2022-12-03T01:39:02.547Z,58.22
2022-12-03T01:40:08.255Z,58.55
2022-12-03T01:41:12.063Z,58.09
2022-12-03T01:42:15.931Z,58.45
2022-12-03T01:43:18.636Z,58.91
2022-12-03T01:44:22.734Z,57.94
2022-12-03T01:45:25.551Z,58.24
2022-12-03T01:46:32.510Z,58.36
2022-12-03T01:47:36.697Z,58.39
2022-12-03T01:48:38.627Z,58.52
2022-12-03T01:49:44.420Z,58.10
2022-12-03T01:50:46.308Z,58.93
2022-12-03T01:51:49.887Z,58.86
2022-12-03T01:52:53.220Z,58.91
2022-12-03T01:53:54.942Z,58.57
2022-12-03T01:55:00.629Z,58.44
2022-12-03T01:56:03.742Z,58.74
2022-12-03T01:57:06.973Z,58.20
2022-12-03T01:58:09.461Z,59.08
2022-12-03T01:59:15.443Z,58.58
2022-12-03T02:00:19.098Z,58.44
2022-12-03T02:01:21.849Z,58.27
2022-12-03T02:02:25.192Z,58.28
2022-12-03T02:03:27.979Z,58.56
2022-12-03T02:04:29.964Z,58.23
2022-12-03T02:05:34.263Z,58.80
2022-12-03T02:06:35.979Z,58.56
2022-12-03T02:07:38.683Z,58.87
2022-12-03T02:08:40.883Z,58.13
2022-12-03T02:09:45.230Z,58.81
2022-12-03T02:10:46.950Z,58.60
2022-12-03T02:11:51.745Z,58.05
2022-12-03T02:12:56.027Z,58.40
2022-12-03T02:14:03.469Z,58.09
2022-12-03T02:15:06.611Z,58.71
2022-12-03T02:16:09.945Z,58.16
2022-12-03T02:17:11.801Z,58.91
2022-12-03T02:18:14.516Z,58.20
2022-12-03T02:19:20.201Z,57.91
2022-12-03T02:20:23.332Z,58.22
2022-12-03T02:21:28.872Z,58.09
2022-12-03T02:22:36.373Z,58.47
2022-12-03T02:23:43.058Z,58.61
2022-12-03T02:24:50.856Z,58.00
2022-12-03T02:25:54.218Z,58.78
2022-12-03T02:26:57.003Z,58.09
2022-12-03T02:27:59.261Z,58.73
2022-12-03T02:29:03.971Z,58.70
2022-12-03T02:30:08.120Z,58.01
2022-12-03T02:31:10.917Z,58.55
2022-12-03T02:32:12.621Z,58.49
2022-12-03T02:33:15.551Z,58.15
2022-12-03T02:34:38.366Z,57.85
2022-12-03T02:35:41.145Z,58.73
2022-12-03T02:36:42.880Z,58.24
2022-12-03T02:37:46.616Z,58.13
2022-12-03T02:38:49.179Z,58.57
2022-12-03T02:39:53.811Z,58.64
2022-12-03T02:40:59.479Z,58.98
2022-12-03T02:42:19.854Z,58.49
2022-12-03T02:43:23.263Z,58.38
2022-12-03T02:44:25.079Z,58.77
2022-12-03T02:45:29.567Z,58.00
2022-12-03T02:46:31.336Z,58.89
2022-12-03T02:47:35.101Z,58.40
2022-12-03T02:48:38.894Z,58.09
2022-12-03T02:49:40.902Z,58.84
2022-12-03T02:50:45.161Z,57.61
2022-12-03T02:51:46.843Z,58.59
2022-12-03T02:52:49.986Z,57.78
2022-12-03T02:53:53.842Z,58.20
2022-12-03T02:54:56.553Z,58.47
2022-12-03T02:56:01.748Z,58.39
2022-12-03T02:57:04.776Z,57.57
2022-12-03T02:58:07.264Z,58.25
2022-12-03T02:59:10.004Z,58.07
2022-12-03T03:00:13.181Z,57.56
2022-12-03T03:01:17.016Z,58.24
2022-12-03T03:02:19.325Z,57.73
2022-12-03T03:03:22.509Z,57.81
2022-12-03T03:04:24.958Z,57.65
2022-12-03T03:05:27.847Z,57.82
2022-12-03T03:06:29.567Z,57.77
2022-12-03T03:07:32.251Z,58.31
2022-12-03T03:08:34.867Z,58.04
2022-12-03T03:09:37.655Z,58.26
2022-12-03T03:10:41.025Z,58.09
2022-12-03T03:11:45.020Z,58.37
2022-12-03T03:12:46.831Z,58.33
2022-12-03T03:13:49.468Z,58.40
2022-12-03T03:14:51.303Z,57.79
2022-12-03T03:15:54.312Z,58.51
2022-12-03T03:16:56.325Z,57.46
2022-12-03T03:17:59.115Z,57.96
2022-12-03T03:19:00.921Z,57.88
2022-12-03T03:20:03.974Z,58.35
2022-12-03T03:21:06.491Z,57.59
2022-12-03T03:22:10.777Z,58.34
2022-12-03T03:23:17.792Z,58.03
2022-12-03T03:24:20.807Z,58.43
2022-12-03T03:25:24.664Z,57.37
2022-12-03T03:26:27.342Z,57.71
2022-12-03T03:27:30.702Z,57.52
2022-12-03T03:28:35.859Z,57.63
2022-12-03T03:29:37.599Z,57.55
2022-12-03T03:30:40.789Z,58.20
2022-12-03T03:31:43.247Z,57.55
2022-12-03T03:32:45.955Z,58.43
2022-12-03T03:33:48.482Z,57.84
2022-12-03T03:34:51.474Z,58.13
2022-12-03T03:35:53.692Z,57.66
2022-12-03T03:36:56.534Z,58.31
2022-12-03T03:37:58.742Z,58.10
2022-12-03T03:39:01.465Z,57.88
2022-12-03T03:40:03.734Z,57.95
2022-12-03T03:41:07.483Z,57.20
2022-12-03T03:42:09.545Z,57.76
2022-12-03T03:43:13.715Z,57.45
2022-12-03T03:44:15.446Z,57.67
2022-12-03T03:45:19.228Z,57.54
2022-12-03T03:46:23.455Z,57.88
2022-12-03T03:47:26.334Z,57.80
2022-12-03T03:48:28.286Z,57.84
2022-12-03T03:49:30.979Z,58.05
2022-12-03T03:50:32.818Z,57.75
2022-12-03T03:51:36.946Z,57.36
2022-12-03T03:52:39.715Z,58.18
2022-12-03T03:53:44.679Z,57.48
2022-12-03T03:54:46.674Z,57.35
2022-12-03T03:55:50.722Z,57.56
2022-12-03T03:56:53.527Z,57.72
2022-12-03T03:57:55.460Z,58.24
2022-12-03T03:58:59.499Z,57.62
2022-12-03T04:00:01.189Z,57.52
2022-12-03T04:01:03.935Z,58.05
2022-12-03T04:02:05.659Z,57.62
2022-12-03T04:03:08.327Z,58.16
2022-12-03T04:04:18.616Z,57.69
2022-12-03T04:05:22.895Z,57.56
2022-12-03T04:06:25.551Z,58.07
2022-12-03T04:07:27.270Z,57.45
2022-12-03T04:08:29.961Z,57.76
2022-12-03T04:09:31.611Z,58.40
2022-12-03T04:10:51.949Z,57.98
2022-12-03T04:12:11.486Z,58.34
2022-12-03T04:13:14.167Z,57.95
2022-12-03T04:14:17.200Z,58.51
2022-12-03T04:15:19.876Z,58.06
2022-12-03T04:16:22.703Z,57.76
2022-12-03T04:17:24.601Z,58.44
2022-12-03T04:18:45.161Z,57.41
2022-12-03T04:19:46.847Z,57.82
2022-12-03T04:20:49.556Z,57.51
2022-12-03T04:22:09.798Z,57.48
2022-12-03T04:23:11.516Z,58.01
2022-12-03T04:24:14.147Z,58.17
2022-12-03T04:25:34.190Z,57.52
2022-12-03T04:26:54.603Z,57.64
2022-12-03T04:28:15.040Z,57.66
2022-12-03T04:29:19.523Z,57.56
2022-12-03T04:30:21.171Z,57.11
2022-12-03T04:31:41.194Z,58.31
2022-12-03T04:33:01.527Z,58.07
2022-12-03T04:34:21.737Z,58.38
2022-12-03T04:35:42.196Z,57.51
2022-12-03T04:36:44.974Z,58.11
2022-12-03T04:37:46.647Z,57.51
2022-12-03T04:38:49.331Z,57.79
2022-12-03T04:39:52.034Z,58.01
2022-12-03T04:41:04.249Z,57.68
2022-12-03T04:42:07.653Z,57.72
2022-12-03T04:43:09.350Z,58.23
2022-12-03T04:44:29.760Z,57.99
2022-12-03T04:45:33.939Z,58.44
2022-12-03T04:46:35.688Z,58.41
2022-12-03T04:47:39.976Z,57.52
2022-12-03T04:48:41.850Z,58.02
2022-12-03T04:49:46.189Z,57.96
2022-12-03T04:50:48.054Z,57.39
2022-12-03T04:51:50.764Z,57.42
2022-12-03T04:52:52.423Z,57.29
2022-12-03T04:53:55.110Z,57.83
2022-12-03T04:54:57.784Z,57.37
2022-12-03T04:55:59.462Z,57.54
2022-12-03T04:57:02.266Z,57.51
2022-12-03T04:58:04.268Z,57.78
2022-12-03T04:59:10.131Z,57.41
2022-12-03T05:00:16.818Z,57.74
2022-12-03T05:01:20.926Z,57.59
2022-12-03T05:02:23.681Z,57.23
2022-12-03T05:03:25.474Z,57.13
2022-12-03T05:04:28.319Z,57.81
2022-12-03T05:05:30.013Z,57.48
2022-12-03T05:06:32.697Z,58.27
2022-12-03T05:07:34.552Z,57.51
2022-12-03T05:08:37.331Z,57.90
2022-12-03T05:09:40.002Z,57.69
2022-12-03T05:10:41.764Z,58.08
2022-12-03T05:11:44.657Z,57.51
2022-12-03T05:12:46.539Z,57.99
2022-12-03T05:13:50.082Z,58.36
2022-12-03T05:14:52.124Z,57.65
2022-12-03T05:15:54.999Z,57.26
2022-12-03T05:16:58.109Z,57.87
2022-12-03T05:18:00.855Z,57.17
2022-12-03T05:19:02.551Z,57.76
2022-12-03T05:20:23.300Z,57.43
2022-12-03T05:21:26.159Z,58.19
2022-12-03T05:22:27.815Z,58.06
2022-12-03T05:23:30.535Z,57.49
2022-12-03T05:24:32.176Z,57.45
2022-12-03T05:25:34.874Z,57.74
2022-12-03T05:26:36.620Z,58.12
2022-12-03T05:27:39.255Z,57.55
2022-12-03T05:28:40.964Z,57.36
2022-12-03T05:29:43.641Z,58.10
2022-12-03T05:30:45.448Z,57.89
2022-12-03T05:31:48.181Z,57.90
2022-12-03T05:32:51.291Z,58.02
2022-12-03T05:33:54.708Z,57.94
2022-12-03T05:34:56.916Z,58.44
2022-12-03T05:35:59.768Z,57.32
2022-12-03T05:37:01.415Z,58.13
2022-12-03T05:38:04.119Z,57.66
2022-12-03T05:39:05.912Z,57.35
2022-12-03T05:40:09.780Z,58.26
2022-12-03T05:41:30.071Z,57.83
2022-12-03T05:42:50.448Z,57.82
2022-12-03T05:43:53.168Z,57.49
2022-12-03T05:44:55.192Z,58.01
2022-12-03T05:45:58.132Z,57.94
2022-12-03T05:46:59.864Z,57.81
2022-12-03T05:48:05.153Z,57.72
2022-12-03T05:49:06.829Z,58.00
2022-12-03T05:50:09.832Z,57.62
2022-12-03T05:51:11.511Z,58.31
2022-12-03T05:52:14.244Z,58.13
2022-12-03T05:53:17.053Z,57.89
2022-12-03T05:54:19.780Z,58.20
2022-12-03T05:55:21.647Z,57.70
2022-12-03T05:56:24.385Z,58.23
2022-12-03T05:57:26.057Z,57.87
2022-12-03T05:58:28.771Z,57.72
2022-12-03T05:59:30.480Z,57.96
2022-12-03T06:00:42.362Z,57.49
2022-12-03T06:01:44.659Z,57.40
2022-12-03T06:02:47.794Z,57.69
2022-12-03T06:03:52.050Z,58.25
2022-12-03T06:04:54.306Z,58.04
2022-12-03T06:05:57.162Z,57.94
2022-12-03T06:06:59.846Z,57.56
2022-12-03T06:08:01.812Z,58.08
2022-12-03T06:09:05.065Z,57.72
2022-12-03T06:10:09.352Z,57.95
2022-12-03T06:11:11.972Z,58.15
2022-12-03T06:12:13.656Z,58.24
2022-12-03T06:13:16.298Z,58.22
2022-12-03T06:14:18.014Z,58.13
2022-12-03T06:15:21.024Z,57.76
2022-12-03T06:16:22.835Z,57.39
2022-12-03T06:17:25.596Z,57.43
2022-12-03T06:18:27.277Z,57.39
2022-12-03T06:19:31.334Z,58.02
2022-12-03T06:20:33.060Z,57.41
2022-12-03T06:21:35.863Z,57.94
2022-12-03T06:22:37.499Z,57.96
2022-12-03T06:23:44.468Z,57.66
2022-12-03T06:24:46.550Z,57.60
2022-12-03T06:25:49.199Z,57.43
2022-12-03T06:26:50.852Z,58.13
2022-12-03T06:27:53.586Z,57.65
2022-12-03T06:28:55.347Z,58.19
2022-12-03T06:29:57.967Z,57.55
2022-12-03T06:30:59.724Z,57.74
2022-12-03T06:32:02.507Z,57.82
2022-12-03T06:33:04.246Z,57.94
2022-12-03T06:34:07.009Z,57.82
2022-12-03T06:35:10.343Z,57.56
2022-12-03T06:36:14.542Z,57.70
2022-12-03T06:37:18.561Z,58.41
2022-12-03T06:38:22.269Z,57.75
2022-12-03T06:39:23.975Z,58.07
2022-12-03T06:40:26.735Z,58.13
2022-12-03T06:41:28.412Z,57.58
2022-12-03T06:42:31.181Z,58.10
2022-12-03T06:43:32.887Z,57.81
2022-12-03T06:44:35.674Z,57.40
2022-12-03T06:45:37.360Z,58.08
2022-12-03T06:46:40.070Z,58.00
2022-12-03T06:47:41.811Z,57.33
2022-12-03T06:48:44.433Z,57.91
2022-12-03T06:49:46.140Z,57.78
2022-12-03T06:50:50.178Z,57.49
2022-12-03T06:51:51.999Z,57.95
2022-12-03T06:52:54.656Z,57.15
2022-12-03T06:53:56.332Z,57.97
2022-12-03T06:54:59.044Z,57.47
2022-12-03T06:56:01.256Z,57.12
2022-12-03T06:57:03.983Z,57.09
2022-12-03T06:58:05.705Z,57.00
2022-12-03T06:59:08.393Z,57.56
2022-12-03T07:00:12.397Z,57.78
2022-12-03T07:01:14.206Z,57.76
2022-12-03T07:02:16.916Z,58.00
2022-12-03T07:03:18.639Z,57.36
2022-12-03T07:04:21.403Z,57.40
2022-12-03T07:05:23.135Z,57.07
2022-12-03T07:06:27.275Z,57.64
2022-12-03T07:07:30.024Z,57.47
2022-12-03T07:08:32.118Z,57.14
2022-12-03T07:09:34.751Z,57.16
2022-12-03T07:10:36.490Z,56.92
2022-12-03T07:11:41.032Z,56.79
2022-12-03T07:12:42.745Z,57.36
2022-12-03T07:13:45.813Z,56.94
2022-12-03T07:14:48.482Z,57.66
2022-12-03T07:15:50.216Z,57.07
2022-12-03T07:16:53.115Z,56.93
2022-12-03T07:17:54.759Z,57.10
2022-12-03T07:18:57.449Z,57.30
2022-12-03T07:20:00.247Z,56.82
2022-12-03T07:21:01.989Z,56.82
2022-12-03T07:22:06.118Z,57.11
2022-12-03T07:23:07.791Z,57.44
2022-12-03T07:24:10.667Z,56.94
2022-12-03T07:25:16.786Z,56.41
2022-12-03T07:26:22.261Z,56.96
2022-12-03T07:27:25.122Z,56.63
2022-12-03T07:28:26.830Z,56.37
2022-12-03T07:29:29.500Z,56.71
2022-12-03T07:30:31.220Z,56.57
2022-12-03T07:31:34.223Z,57.15
2022-12-03T07:32:35.919Z,57.18
2022-12-03T07:33:38.647Z,57.36
2022-12-03T07:34:41.344Z,56.50
2022-12-03T07:35:43.065Z,56.61
2022-12-03T07:36:45.756Z,56.79
2022-12-03T07:37:48.920Z,56.58
2022-12-03T07:38:51.983Z,57.24
2022-12-03T07:39:54.615Z,56.78
2022-12-03T07:40:57.351Z,56.70
2022-12-03T07:42:00.074Z,56.98
2022-12-03T07:43:01.730Z,57.40
2022-12-03T07:44:09.150Z,57.19
2022-12-03T07:45:15.239Z,57.44
2022-12-03T07:46:18.062Z,57.00
2022-12-03T07:47:19.775Z,56.78
2022-12-03T07:48:22.424Z,56.94
2022-12-03T07:49:26.655Z,56.97
2022-12-03T07:50:28.387Z,56.69
2022-12-03T07:51:32.484Z,57.07
2022-12-03T07:52:34.373Z,57.26
2022-12-03T07:53:38.541Z,57.40
2022-12-03T07:54:40.355Z,57.29
2022-12-03T07:55:43.121Z,56.92
2022-12-03T07:56:45.803Z,56.70
2022-12-03T07:57:47.482Z,56.58
2022-12-03T07:58:50.163Z,56.69
2022-12-03T07:59:51.961Z,57.23
2022-12-03T08:00:54.713Z,56.85
2022-12-03T08:01:56.587Z,56.86
2022-12-03T08:02:59.385Z,56.59
2022-12-03T08:04:02.131Z,56.98
2022-12-03T08:05:04.502Z,56.63
2022-12-03T08:06:07.574Z,56.62
2022-12-03T08:07:09.219Z,56.74
2022-12-03T08:08:11.942Z,56.92
2022-12-03T08:09:16.346Z,57.07
2022-12-03T08:10:19.412Z,56.99
2022-12-03T08:11:22.090Z,56.94
2022-12-03T08:12:40.068Z,56.76
2022-12-03T08:13:43.331Z,56.78
2022-12-03T08:14:44.976Z,56.74
2022-12-03T08:15:48.024Z,56.51
2022-12-03T08:16:49.809Z,56.68
2022-12-03T08:17:56.150Z,56.68
2022-12-03T08:18:58.847Z,56.20
2022-12-03T08:20:00.485Z,56.74
2022-12-03T08:21:03.446Z,56.52
2022-12-03T08:22:13.808Z,56.75
2022-12-03T08:23:17.943Z,56.00
2022-12-03T08:24:21.381Z,56.18
2022-12-03T08:25:28.831Z,56.48
2022-12-03T08:26:30.506Z,56.48
2022-12-03T08:27:33.232Z,56.64
2022-12-03T08:28:36.048Z,56.56
2022-12-03T08:29:38.846Z,56.69
2022-12-03T08:30:41.035Z,56.34
2022-12-03T08:31:45.923Z,56.23
2022-12-03T08:32:48.217Z,56.29
2022-12-03T08:33:52.638Z,56.10
2022-12-03T08:34:54.561Z,56.27
2022-12-03T08:35:57.715Z,56.41
2022-12-03T08:37:03.356Z,55.96
2022-12-03T08:38:10.168Z,55.68
2022-12-03T08:39:27.383Z,55.54
2022-12-03T08:40:35.676Z,55.73
2022-12-03T08:41:55.918Z,55.50
2022-12-03T08:42:58.777Z,55.77
2022-12-03T08:44:00.482Z,55.14
2022-12-03T08:45:39.821Z,55.75
2022-12-03T08:46:42.068Z,55.59
2022-12-03T08:47:44.721Z,55.52
2022-12-03T08:48:49.463Z,55.56
2022-12-03T08:49:55.067Z,55.88
2022-12-03T08:51:00.020Z,55.81
2022-12-03T08:52:02.156Z,55.30
2022-12-03T08:53:16.407Z,55.27
2022-12-03T08:54:20.895Z,55.33
2022-12-03T08:55:34.361Z,55.10
2022-12-03T08:56:37.863Z,55.13
2022-12-03T08:57:43.235Z,55.33
2022-12-03T08:58:48.158Z,54.92
2022-12-03T08:59:52.315Z,55.22
2022-12-03T09:00:58.035Z,55.11
2022-12-03T09:02:01.122Z,55.21
2022-12-03T09:03:02.932Z,54.75
2022-12-03T09:04:30.627Z,55.14
2022-12-03T09:05:32.446Z,55.04
2022-12-03T09:06:35.318Z,54.91
2022-12-03T09:07:38.080Z,54.71
2022-12-03T09:08:39.814Z,54.88
2022-12-03T09:09:42.511Z,54.76
2022-12-03T09:10:45.595Z,54.87
2022-12-03T09:11:48.606Z,55.64
2022-12-03T09:12:51.304Z,55.47
2022-12-03T09:13:52.997Z,54.90
2022-12-03T09:14:56.117Z,54.92
2022-12-03T09:15:57.997Z,54.38
2022-12-03T09:17:00.774Z,54.28
2022-12-03T09:18:03.554Z,54.04
2022-12-03T09:19:06.324Z,54.14
2022-12-03T09:20:09.878Z,54.41
2022-12-03T09:21:11.654Z,54.51
2022-12-03T09:22:15.174Z,54.24
2022-12-03T09:23:17.279Z,53.97
2022-12-03T09:24:20.163Z,54.01
2022-12-03T09:25:21.896Z,54.09
2022-12-03T09:26:27.121Z,54.30
2022-12-03T09:27:29.790Z,54.25
2022-12-03T09:28:31.654Z,53.95
2022-12-03T09:29:34.330Z,53.90
2022-12-03T09:30:36.072Z,54.48
2022-12-03T09:31:38.989Z,53.98
2022-12-03T09:32:40.693Z,53.72
2022-12-03T09:33:44.069Z,54.33
2022-12-03T09:34:47.058Z,54.08
2022-12-03T09:35:48.875Z,54.08
2022-12-03T09:36:51.613Z,53.73
2022-12-03T09:37:53.662Z,53.79
2022-12-03T09:38:56.391Z,53.98
2022-12-03T09:39:58.236Z,53.97
2022-12-03T09:41:01.925Z,53.43
2022-12-03T09:42:06.480Z,54.05
2022-12-03T09:43:08.517Z,53.92
2022-12-03T09:44:17.470Z,53.76
2022-12-03T09:45:19.662Z,53.39
2022-12-03T09:46:23.254Z,53.37
2022-12-03T09:47:25.240Z,53.48
2022-12-03T09:48:27.988Z,53.41
2022-12-03T09:49:32.407Z,53.44
2022-12-03T09:50:35.280Z,53.95
2022-12-03T09:51:37.117Z,53.77
2022-12-03T09:52:39.800Z,53.93
2022-12-03T09:53:41.734Z,53.79
2022-12-03T09:54:47.518Z,53.14
2022-12-03T09:55:49.779Z,53.16
2022-12-03T09:56:52.869Z,53.69
2022-12-03T09:57:57.244Z,53.84
2022-12-03T09:59:00.543Z,53.76
2022-12-03T10:00:02.230Z,53.86
2022-12-03T10:01:14.470Z,53.68
2022-12-03T10:02:21.945Z,53.60
2022-12-03T10:03:30.043Z,53.46
2022-12-03T10:04:32.059Z,53.58
2022-12-03T10:05:35.691Z,53.55
2022-12-03T10:06:43.953Z,53.68
2022-12-03T10:07:48.732Z,53.60
2022-12-03T10:08:52.937Z,53.86
2022-12-03T10:09:55.925Z,53.45
2022-12-03T10:10:57.900Z,53.84
2022-12-03T10:12:01.127Z,53.33
2022-12-03T10:13:04.764Z,53.20
2022-12-03T10:14:07.582Z,53.39
2022-12-03T10:15:12.355Z,53.70
2022-12-03T10:16:17.394Z,53.82
2022-12-03T10:17:20.359Z,53.62
2022-12-03T10:18:24.888Z,53.57
2022-12-03T10:19:29.867Z,53.76
2022-12-03T10:20:31.646Z,53.59
2022-12-03T10:21:37.773Z,53.92
2022-12-03T10:22:39.628Z,54.09
2022-12-03T10:23:43.606Z,53.80
2022-12-03T10:24:46.306Z,53.86
2022-12-03T10:25:52.860Z,53.30
2022-12-03T10:26:57.047Z,53.46
2022-12-03T10:28:00.503Z,53.59
2022-12-03T10:29:13.057Z,53.50
2022-12-03T10:30:16.689Z,53.80
2022-12-03T10:31:19.501Z,53.26
2022-12-03T10:32:25.669Z,53.11
2022-12-03T10:33:33.938Z,53.57
2022-12-03T10:34:37.487Z,53.37
2022-12-03T10:35:42.655Z,53.60
2022-12-03T10:36:44.358Z,53.24
2022-12-03T10:38:01.173Z,53.61
2022-12-03T10:39:14.380Z,53.30
2022-12-03T10:40:24.622Z,53.43
2022-12-03T10:41:29.177Z,53.15
2022-12-03T10:42:33.266Z,53.66
2022-12-03T10:43:35.014Z,53.33
2022-12-03T10:44:39.185Z,54.21
2022-12-03T10:45:41.014Z,53.56
2022-12-03T10:46:44.279Z,53.39
2022-12-03T10:48:04.867Z,53.30
2022-12-03T10:49:12.798Z,53.80
2022-12-03T10:50:20.119Z,53.54
2022-12-03T10:51:23.027Z,53.71
2022-12-03T10:52:26.188Z,54.09
2022-12-03T10:53:31.583Z,53.60
2022-12-03T10:54:35.826Z,53.53
2022-12-03T10:55:39.284Z,53.38
2022-12-03T10:56:41.987Z,53.19
2022-12-03T10:57:45.851Z,53.76
2022-12-03T10:58:48.979Z,53.42
2022-12-03T10:59:52.060Z,53.94
2022-12-03T11:00:56.566Z,53.60
2022-12-03T11:01:59.347Z,53.60
2022-12-03T11:03:01.684Z,53.67
2022-12-03T11:04:05.831Z,53.65
2022-12-03T11:05:12.513Z,53.30
2022-12-03T11:06:16.639Z,53.25
2022-12-03T11:07:20.112Z,53.39
2022-12-03T11:08:24.466Z,53.66
2022-12-03T11:09:28.526Z,53.29
2022-12-03T11:10:31.235Z,53.14
2022-12-03T11:11:32.960Z,53.17
2022-12-03T11:12:35.765Z,52.92
2022-12-03T11:13:46.767Z,53.09
2022-12-03T11:15:08.159Z,52.98
2022-12-03T11:16:10.116Z,53.13
2022-12-03T11:17:12.869Z,52.92
2022-12-03T11:19:02.249Z,52.78
2022-12-03T11:20:06.051Z,53.34
2022-12-03T11:21:10.060Z,53.13
2022-12-03T11:22:43.695Z,53.21
2022-12-03T11:24:15.931Z,52.94
2022-12-03T11:25:50.374Z,53.03
2022-12-03T11:27:20.584Z,52.90
2022-12-03T11:28:33.223Z,52.98
2022-12-03T11:29:56.315Z,53.21
2022-12-03T11:31:01.471Z,52.73
2022-12-03T11:32:04.398Z,53.29
2022-12-03T11:33:22.389Z,53.34
2022-12-03T11:34:50.787Z,53.42
2022-12-03T11:36:11.228Z,52.96
2022-12-03T11:37:27.528Z,53.49
2022-12-03T11:38:54.908Z,53.26
2022-12-03T11:40:03.143Z,53.52
2022-12-03T11:41:08.715Z,53.52
2022-12-03T11:42:39.256Z,53.01
2022-12-03T11:44:06.514Z,53.72
2022-12-03T11:45:23.176Z,52.98
2022-12-03T11:46:26.599Z,52.98
2022-12-03T11:47:29.635Z,52.93
2022-12-03T11:48:43.726Z,52.89
2022-12-03T11:49:51.103Z,53.21
2022-12-03T11:50:53.752Z,53.12
2022-12-03T11:51:56.573Z,53.30
2022-12-03T11:53:02.216Z,53.29
2022-12-03T11:54:04.033Z,52.98
2022-12-03T11:55:17.429Z,53.27
2022-12-03T11:56:24.258Z,52.74
2022-12-03T11:57:29.426Z,53.12
2022-12-03T11:58:32.152Z,53.15
2022-12-03T11:59:33.842Z,53.18
2022-12-03T12:00:36.506Z,52.91
2022-12-03T12:01:40.630Z,52.88
2022-12-03T12:02:43.504Z,53.12
2022-12-03T12:03:48.206Z,53.29
2022-12-03T12:04:51.383Z,52.75
2022-12-03T12:06:02.559Z,53.34
2022-12-03T12:07:05.528Z,53.14
2022-12-03T12:08:19.850Z,52.63
2022-12-03T12:09:50.609Z,53.64
2022-12-03T12:10:53.434Z,52.98
2022-12-03T12:11:55.144Z,53.45
2022-12-03T12:12:58.333Z,53.35
2022-12-03T12:14:01.610Z,53.27
2022-12-03T12:15:34.379Z,53.13
2022-12-03T12:16:55.449Z,52.98
2022-12-03T12:17:57.198Z,53.40
2022-12-03T12:19:29.861Z,53.32
2022-12-03T12:20:33.949Z,53.08
2022-12-03T12:21:40.978Z,53.36
2022-12-03T12:22:43.820Z,53.15
2022-12-03T12:23:45.551Z,53.10
2022-12-03T12:24:51.743Z,52.78
2022-12-03T12:25:54.498Z,53.26
2022-12-03T12:26:57.511Z,52.97
2022-12-03T12:28:00.210Z,52.96
2022-12-03T12:29:01.872Z,52.98
2022-12-03T12:30:07.653Z,53.11
2022-12-03T12:31:10.957Z,53.20
2022-12-03T12:32:16.096Z,53.19
2022-12-03T12:33:23.158Z,53.04
2022-12-03T12:34:25.378Z,53.11
2022-12-03T12:35:30.805Z,52.98
2022-12-03T12:36:34.690Z,52.97
2022-12-03T12:37:44.936Z,52.92
2022-12-03T12:38:48.860Z,53.48
2022-12-03T12:39:54.480Z,52.98
2022-12-03T12:40:57.582Z,53.11
2022-12-03T12:41:59.374Z,53.07
2022-12-03T12:43:08.439Z,53.17
2022-12-03T12:44:14.440Z,52.78
2022-12-03T12:45:18.812Z,53.36
2022-12-03T12:46:47.103Z,53.06
2022-12-03T12:47:50.286Z,53.50
2022-12-03T12:48:57.923Z,53.45
2022-12-03T12:50:01.843Z,53.23
2022-12-03T12:51:10.795Z,53.54
2022-12-03T12:52:15.721Z,53.54
2022-12-03T12:53:23.098Z,53.32
2022-12-03T12:54:25.375Z,53.15
2022-12-03T12:55:28.054Z,52.93
2022-12-03T12:56:32.992Z,53.42
2022-12-03T12:57:34.873Z,53.41
2022-12-03T12:58:37.635Z,52.74
2022-12-03T12:59:39.543Z,52.82
2022-12-03T13:00:42.605Z,53.41
2022-12-03T13:01:45.419Z,52.93
2022-12-03T13:02:51.742Z,52.79
2022-12-03T13:03:54.587Z,53.11
2022-12-03T13:04:56.377Z,52.92
2022-12-03T13:05:59.151Z,53.09
2022-12-03T13:07:00.904Z,52.66
2022-12-03T13:08:19.554Z,53.26
2022-12-03T13:09:22.902Z,53.60
2022-12-03T13:10:37.176Z,53.42
2022-12-03T13:11:42.126Z,53.14
2022-12-03T13:12:44.656Z,52.76
2022-12-03T13:13:47.380Z,52.86
2022-12-03T13:14:50.452Z,53.04
2022-12-03T13:15:58.683Z,53.16
2022-12-03T13:17:03.339Z,52.95
2022-12-03T13:18:19.799Z,52.68
2022-12-03T13:19:24.386Z,52.79
2022-12-03T13:20:26.240Z,53.34
2022-12-03T13:21:37.244Z,53.47
2022-12-03T13:22:39.000Z,53.51
2022-12-03T13:23:43.068Z,53.01
2022-12-03T13:24:47.665Z,53.00
2022-12-03T13:26:09.264Z,52.77
2022-12-03T13:27:25.715Z,52.50
2022-12-03T13:28:29.492Z,52.98
2022-12-03T13:29:33.170Z,53.26
2022-12-03T13:30:34.874Z,52.95
2022-12-03T13:31:43.463Z,53.03
2022-12-03T13:32:46.690Z,53.01
2022-12-03T13:33:48.576Z,53.42
2022-12-03T13:34:51.480Z,52.55
2022-12-03T13:35:54.467Z,53.03
2022-12-03T13:36:58.739Z,53.18
2022-12-03T13:38:00.749Z,53.01
2022-12-03T13:39:11.109Z,52.63
2022-12-03T13:40:22.716Z,53.29
2022-12-03T13:41:42.872Z,53.36
2022-12-03T13:42:46.612Z,53.50
2022-12-03T13:43:48.409Z,53.08
2022-12-03T13:44:51.517Z,53.35
2022-12-03T13:45:54.415Z,53.59
2022-12-03T13:46:57.219Z,53.22
2022-12-03T13:48:01.717Z,53.11
2022-12-03T13:49:04.443Z,53.64
2022-12-03T13:50:20.657Z,53.40
2022-12-03T13:51:25.853Z,53.56
2022-12-03T13:52:28.587Z,53.22
2022-12-03T13:53:33.892Z,53.69